Time;durP1;ratioP1;P1;durP2;ratioP2;P2;SDS_P1;SDS_P2;PMS_P1;PMS_P2;Temp;Humidity;BMP_temperature;BMP_pressure;BME280_temperature;BME280_humidity;BME280_pressure;Samples;Min_cycle;Max_cycle;Signal;HPM_P1;HPM_P2
2023/07/03 00:00:17;;;;;;;10.55;3.75;;;14.00;99.90;;;;;;4993167;28;20249;-73
2023/07/03 00:02:52;;;;;;;10.52;4.18;;;14.00;99.90;;;;;;4993518;28;20246;-74
2023/07/03 00:05:24;;;;;;;8.82;3.85;;;14.10;99.90;;;;;;4993240;28;20294;-73
2023/07/03 00:07:58;;;;;;;10.45;4.90;;;14.20;99.90;;;;;;4993427;28;20203;-74
2023/07/03 00:10:29;;;;;;;11.32;3.83;;;14.20;99.90;;;;;;4993665;28;20192;-73
2023/07/03 00:13:00;;;;;;;6.55;3.50;;;14.30;99.90;;;;;;4994250;28;20548;-73
2023/07/03 00:15:31;;;;;;;9.32;3.78;;;14.30;99.90;;;;;;4993587;28;20207;-73
2023/07/03 00:18:02;;;;;;;12.63;3.63;;;14.40;99.90;;;;;;4997333;28;20210;-73
2023/07/03 00:20:34;;;;;;;9.35;3.90;;;14.50;99.90;;;;;;4997407;28;20301;-73
2023/07/03 00:23:07;;;;;;;7.63;3.90;;;14.70;99.90;;;;;;4996937;28;20207;-74
2023/07/03 00:25:38;;;;;;;8.25;3.53;;;14.80;99.90;;;;;;4996940;28;20208;-74
2023/07/03 00:28:10;;;;;;;8.85;4.07;;;14.90;99.90;;;;;;4997072;28;20196;-73
2023/07/03 00:30:41;;;;;;;13.00;5.10;;;15.10;99.90;;;;;;4997760;28;20196;-74
2023/07/03 00:33:12;;;;;;;8.57;4.88;;;15.10;99.90;;;;;;4997106;28;20192;-74
2023/07/03 00:35:43;;;;;;;10.23;4.38;;;15.20;99.90;;;;;;4997182;28;20239;-73
2023/07/03 00:38:16;;;;;;;8.50;4.43;;;15.30;99.90;;;;;;4996797;28;20192;-73
2023/07/03 00:40:47;;;;;;;10.95;4.57;;;15.30;99.90;;;;;;4991385;28;20223;-75
2023/07/03 00:43:19;;;;;;;11.35;4.68;;;15.40;99.90;;;;;;4992346;28;20195;-74
2023/07/03 00:45:50;;;;;;;7.95;4.32;;;15.40;99.90;;;;;;4988476;28;20254;-73
2023/07/03 00:48:21;;;;;;;10.95;4.07;;;15.50;99.90;;;;;;4995672;28;20200;-73
2023/07/03 00:50:52;;;;;;;11.13;4.25;;;15.70;99.90;;;;;;4994029;28;20196;-74
2023/07/03 00:53:25;;;;;;;10.73;4.38;;;15.80;99.90;;;;;;4989647;28;20207;-74
2023/07/03 00:55:57;;;;;;;10.90;3.90;;;16.00;99.90;;;;;;4995713;28;20196;-74
2023/07/03 00:58:29;;;;;;;9.73;3.75;;;16.00;99.90;;;;;;4991039;28;20223;-73
2023/07/03 01:01:04;;;;;;;10.73;3.70;;;16.10;99.90;;;;;;4996037;28;20622;-73
2023/07/03 01:03:41;;;;;;;8.75;3.95;;;16.20;99.90;;;;;;4995674;28;20207;-73
2023/07/03 01:06:19;;;;;;;9.45;3.80;;;16.30;99.90;;;;;;4995464;28;20207;-74
2023/07/03 01:08:57;;;;;;;10.05;3.88;;;16.40;99.90;;;;;;4996317;28;20201;-73
2023/07/03 01:11:29;;;;;;;12.15;4.07;;;16.50;99.90;;;;;;4992931;28;20200;-74
2023/07/03 01:14:04;;;;;;;7.35;3.17;;;16.50;99.90;;;;;;4995006;28;20196;-73
2023/07/03 01:16:37;;;;;;;8.95;3.35;;;16.60;99.90;;;;;;4994607;28;20651;-74
2023/07/03 01:19:15;;;;;;;7.93;3.55;;;16.80;99.90;;;;;;4993494;28;20206;-74
2023/07/03 01:21:52;;;;;;;10.60;3.60;;;16.80;99.90;;;;;;4991100;28;20195;-75
2023/07/03 01:24:43;;;;;;;13.55;3.50;;;16.90;99.90;;;;;;4990209;28;20200;-74
2023/07/03 01:27:16;;;;;;;7.90;3.25;;;16.90;99.90;;;;;;4989234;28;20226;-74
2023/07/03 01:29:49;;;;;;;9.13;2.90;;;16.90;99.90;;;;;;4992502;28;20211;-75
2023/07/03 01:32:22;;;;;;;7.47;2.97;;;16.90;99.90;;;;;;4988023;28;20191;-73
2023/07/03 01:34:55;;;;;;;9.77;3.28;;;16.90;99.90;;;;;;4995101;28;20200;-74
2023/07/03 01:37:29;;;;;;;8.07;2.88;;;16.90;99.90;;;;;;4992312;28;20555;-73
2023/07/03 01:40:03;;;;;;;8.88;2.95;;;17.00;99.90;;;;;;4992214;28;20215;-74
2023/07/03 01:42:37;;;;;;;7.97;2.92;;;17.10;99.90;;;;;;4994296;28;20196;-74
2023/07/03 01:45:09;;;;;;;7.35;2.75;;;17.10;99.90;;;;;;4994290;28;20198;-74
2023/07/03 01:47:41;;;;;;;7.20;3.00;;;17.20;99.90;;;;;;4993609;28;20543;-74
2023/07/03 01:50:17;;;;;;;8.98;2.78;;;17.10;99.90;;;;;;4992017;28;20435;-74
2023/07/03 01:52:54;;;;;;;6.05;2.80;;;17.20;99.90;;;;;;4995274;28;20199;-74
2023/07/03 01:55:34;;;;;;;5.85;2.63;;;17.30;99.90;;;;;;4995534;28;20191;-74
2023/07/03 01:58:12;;;;;;;7.88;2.72;;;17.30;99.90;;;;;;4993644;28;20223;-73
2023/07/03 02:00:48;;;;;;;9.07;2.50;;;17.40;99.90;;;;;;4992073;28;20238;-74
2023/07/03 02:03:26;;;;;;;7.80;2.40;;;17.50;99.90;;;;;;4991765;28;20188;-74
2023/07/03 02:06:00;;;;;;;6.00;2.42;;;17.50;99.90;;;;;;4994523;28;20183;-74
2023/07/03 02:08:33;;;;;;;6.60;2.63;;;17.50;99.90;;;;;;4992973;28;20198;-74
2023/07/03 02:11:06;;;;;;;6.50;2.75;;;17.50;99.90;;;;;;4989010;28;20200;-74
2023/07/03 02:13:37;;;;;;;10.30;2.45;;;17.40;99.90;;;;;;4980471;28;20195;-74
2023/07/03 02:16:08;;;;;;;5.47;2.08;;;17.40;99.90;;;;;;4992057;28;20196;-74
2023/07/03 02:18:39;;;;;;;7.90;2.40;;;17.50;99.90;;;;;;4992102;28;20191;-74
2023/07/03 02:21:11;;;;;;;9.38;2.63;;;17.50;99.90;;;;;;4992723;28;20684;-75
2023/07/03 02:23:42;;;;;;;5.32;2.38;;;17.60;99.90;;;;;;4984208;28;20192;-74
2023/07/03 02:26:15;;;;;;;5.47;2.28;;;17.60;99.90;;;;;;4980647;28;20200;-74
2023/07/03 02:28:46;;;;;;;6.22;2.47;;;17.70;99.90;;;;;;4991169;28;20199;-74
2023/07/03 02:31:17;;;;;;;5.35;2.20;;;17.70;99.90;;;;;;4992432;28;20209;-74
2023/07/03 02:33:48;;;;;;;6.85;2.40;;;17.90;99.90;;;;;;4994882;28;20199;-74
2023/07/03 02:36:20;;;;;;;5.65;2.38;;;17.90;99.90;;;;;;4980042;28;20191;-74
2023/07/03 02:38:51;;;;;;;6.32;2.20;;;17.90;99.90;;;;;;4994541;28;20213;-74
2023/07/03 02:41:24;;;;;;;5.10;2.30;;;18.00;99.90;;;;;;4994672;28;20219;-74
2023/07/03 02:43:55;;;;;;;8.40;2.80;;;18.00;99.90;;;;;;4994752;28;20198;-74
2023/07/03 02:46:26;;;;;;;9.82;3.00;;;17.90;99.90;;;;;;4994828;28;20275;-74
2023/07/03 02:48:57;;;;;;;6.53;2.33;;;17.80;99.90;;;;;;4994681;28;20191;-74
2023/07/03 02:51:28;;;;;;;4.32;1.90;;;17.80;99.90;;;;;;4994687;28;20196;-74
2023/07/03 02:54:00;;;;;;;7.70;2.25;;;17.70;99.90;;;;;;4994511;28;20195;-74
2023/07/03 02:56:33;;;;;;;10.52;2.83;;;17.80;99.90;;;;;;4994272;28;20666;-74
2023/07/03 02:59:05;;;;;;;16.35;4.55;;;17.80;99.90;;;;;;4994494;28;20225;-74
2023/07/03 03:01:36;;;;;;;7.05;3.00;;;17.90;99.90;;;;;;4994482;28;20220;-74
2023/07/03 03:04:07;;;;;;;13.90;2.60;;;18.00;99.90;;;;;;4994584;28;20191;-74
2023/07/03 03:06:38;;;;;;;8.48;2.38;;;18.10;99.90;;;;;;4994549;28;20643;-74
2023/07/03 03:09:10;;;;;;;6.82;2.17;;;18.10;99.90;;;;;;4994337;28;20192;-74
2023/07/03 03:11:43;;;;;;;6.38;2.30;;;18.20;99.90;;;;;;4994407;28;20204;-74
2023/07/03 03:14:14;;;;;;;6.95;2.40;;;18.30;99.90;;;;;;4994675;28;20202;-74
2023/07/03 03:16:45;;;;;;;5.50;1.80;;;18.40;99.90;;;;;;4994416;28;20199;-74
2023/07/03 03:19:16;;;;;;;6.13;1.95;;;18.40;99.90;;;;;;4994236;28;20575;-74
2023/07/03 03:21:49;;;;;;;7.75;1.80;;;18.40;99.90;;;;;;4993952;28;20226;-74
2023/07/03 03:24:20;;;;;;;5.57;1.90;;;18.50;99.90;;;;;;4994207;28;20202;-73
2023/07/03 03:26:53;;;;;;;7.30;1.95;;;18.50;99.90;;;;;;4974886;28;20192;-74
2023/07/03 03:29:25;;;;;;;3.85;1.45;;;18.50;99.90;;;;;;4985648;28;20206;-74
2023/07/03 03:31:56;;;;;;;6.07;1.60;;;18.50;99.90;;;;;;4994417;28;20196;-74
2023/07/03 03:34:27;;;;;;;9.00;2.28;;;18.30;99.90;;;;;;4994204;28;20191;-74
2023/07/03 03:36:58;;;;;;;5.95;2.00;;;18.20;99.90;;;;;;4994386;28;20203;-74
2023/07/03 03:39:30;;;;;;;6.35;1.77;;;18.10;99.90;;;;;;4994378;28;20196;-74
2023/07/03 03:42:03;;;;;;;5.00;1.85;;;18.10;99.90;;;;;;4992900;28;20230;-74
2023/07/03 03:44:34;;;;;;;5.85;1.80;;;18.10;99.90;;;;;;4991441;28;20195;-74
2023/07/03 03:47:05;;;;;;;7.22;2.05;;;18.10;99.90;;;;;;4991900;28;20211;-74
2023/07/03 03:49:37;;;;;;;5.30;1.95;;;18.10;99.90;;;;;;4992695;28;20195;-74
2023/07/03 03:52:08;;;;;;;7.47;1.92;;;18.10;99.90;;;;;;4992003;28;20200;-73
2023/07/03 03:54:39;;;;;;;7.00;1.80;;;18.10;99.90;;;;;;4994247;28;20199;-73
2023/07/03 03:57:12;;;;;;;4.45;1.63;;;18.20;99.90;;;;;;4993427;28;20206;-73
2023/07/03 03:59:44;;;;;;;7.22;1.63;;;18.20;99.90;;;;;;4992011;28;20597;-73
2023/07/03 04:02:15;;;;;;;8.23;1.83;;;18.30;99.90;;;;;;4991683;28;20223;-74
2023/07/03 04:04:46;;;;;;;6.07;1.77;;;18.30;99.90;;;;;;4993570;28;20191;-73
2023/07/03 04:07:17;;;;;;;5.30;1.60;;;18.30;99.90;;;;;;4993627;28;20286;-73
2023/07/03 04:09:48;;;;;;;4.97;1.48;;;18.30;99.90;;;;;;4974948;28;20192;-74
2023/07/03 04:12:22;;;;;;;8.05;1.88;;;18.30;99.90;;;;;;4974206;28;20562;-73
2023/07/03 04:14:53;;;;;;;5.13;1.70;;;18.40;99.90;;;;;;4974769;28;20199;-74
2023/07/03 04:17:24;;;;;;;7.60;2.33;;;18.50;99.90;;;;;;4974644;28;20192;-74
2023/07/03 04:19:55;;;;;;;4.70;1.70;;;18.60;99.90;;;;;;4981055;28;20278;-74
2023/07/03 04:22:26;;;;;;;5.25;1.60;;;18.50;99.90;;;;;;4993462;28;20560;-73
2023/07/03 04:24:57;;;;;;;5.38;1.60;;;18.50;99.90;;;;;;4993697;28;20594;-73
2023/07/03 04:27:30;;;;;;;5.47;1.58;;;18.50;99.90;;;;;;4993599;28;20555;-73
2023/07/03 04:30:01;;;;;;;3.35;1.33;;;18.50;99.90;;;;;;4993650;28;20192;-74
2023/07/03 04:32:33;;;;;;;3.67;1.15;;;18.60;99.90;;;;;;4993542;28;20195;-73
2023/07/03 04:35:04;;;;;;;4.45;1.27;;;18.50;99.90;;;;;;4993206;28;20203;-73
2023/07/03 04:37:36;;;;;;;4.50;1.13;;;18.40;99.90;;;;;;4993550;28;20207;-74
2023/07/03 04:40:08;;;;;;;6.72;1.77;;;18.40;99.90;;;;;;4993423;28;20196;-73
2023/07/03 04:42:41;;;;;;;8.25;2.25;;;18.30;99.90;;;;;;4993423;28;20263;-73
2023/07/03 04:45:13;;;;;;;8.90;2.00;;;18.20;99.90;;;;;;4993374;28;20199;-74
2023/07/03 04:47:44;;;;;;;6.43;1.90;;;18.10;99.90;;;;;;4993426;28;20211;-74
2023/07/03 04:50:16;;;;;;;11.68;2.45;;;18.00;99.90;;;;;;4993341;28;20202;-74
2023/07/03 04:52:49;;;;;;;7.30;2.20;;;17.90;99.90;;;;;;4993617;28;20204;-74
2023/07/03 04:55:21;;;;;;;7.80;1.90;;;17.70;99.90;;;;;;4993142;28;20207;-74
2023/07/03 04:57:55;;;;;;;6.10;2.08;;;17.60;99.90;;;;;;4991040;28;20589;-74
2023/07/03 05:00:27;;;;;;;9.57;1.95;;;17.60;99.90;;;;;;4991680;28;20242;-74
2023/07/03 05:03:02;;;;;;;9.02;2.17;;;17.50;99.90;;;;;;4994348;28;20204;-74
2023/07/03 05:05:33;;;;;;;8.02;2.10;;;17.50;99.90;;;;;;4988092;28;20200;-74
2023/07/03 05:08:04;;;;;;;7.28;1.77;;;17.50;99.90;;;;;;4987500;28;20204;-74
2023/07/03 05:10:35;;;;;;;8.98;2.35;;;17.50;99.90;;;;;;4993036;28;20568;-75
2023/07/03 05:13:08;;;;;;;8.20;2.13;;;17.50;99.90;;;;;;4994259;28;20196;-74
2023/07/03 05:15:39;;;;;;;5.80;1.77;;;17.50;99.90;;;;;;4987378;28;20215;-75
2023/07/03 05:18:10;;;;;;;7.22;2.08;;;17.40;99.90;;;;;;4990000;28;20208;-75
2023/07/03 05:20:42;;;;;;;9.45;1.90;;;17.30;99.90;;;;;;4993522;28;20211;-75
2023/07/03 05:23:15;;;;;;;8.07;1.95;;;17.30;99.90;;;;;;4996005;28;20785;-75
2023/07/03 05:25:47;;;;;;;6.65;1.65;;;17.30;99.90;;;;;;4995864;28;20666;-75
2023/07/03 05:28:21;;;;;;;8.38;1.70;;;17.20;99.90;;;;;;4995557;28;20199;-75
2023/07/03 05:30:57;;;;;;;9.35;1.92;;;17.10;99.90;;;;;;4994942;28;20286;-75
2023/07/03 05:33:29;;;;;;;8.23;2.20;;;17.20;99.90;;;;;;4995740;28;20203;-74
2023/07/03 05:36:03;;;;;;;8.40;2.20;;;17.10;99.90;;;;;;4995991;28;20203;-75
2023/07/03 05:38:34;;;;;;;9.57;1.90;;;17.10;99.90;;;;;;4995727;28;20222;-75
2023/07/03 05:41:05;;;;;;;5.57;1.95;;;17.10;99.90;;;;;;4993881;28;20211;-75
2023/07/03 05:43:38;;;;;;;6.82;2.22;;;17.10;99.90;;;;;;4995609;28;20196;-75
2023/07/03 05:46:09;;;;;;;6.15;2.03;;;17.00;99.90;;;;;;4995642;28;20561;-74
2023/07/03 05:48:40;;;;;;;7.13;2.00;;;17.00;99.90;;;;;;4994605;28;20207;-74
2023/07/03 05:51:12;;;;;;;9.52;1.90;;;17.00;99.90;;;;;;4991507;28;20199;-74
2023/07/03 05:53:43;;;;;;;5.40;1.80;;;16.90;99.90;;;;;;4992709;28;20196;-74
2023/07/03 05:56:14;;;;;;;6.20;2.20;;;16.80;99.90;;;;;;4995587;28;20203;-75
2023/07/03 05:58:47;;;;;;;4.53;1.58;;;16.80;99.90;;;;;;4995404;28;20714;-74
2023/07/03 06:01:18;;;;;;;6.18;1.70;;;16.80;99.90;;;;;;4995139;28;20235;-75
2023/07/03 06:03:49;;;;;;;7.57;1.70;;;16.70;99.90;;;;;;4995365;28;20534;-75
2023/07/03 06:06:20;;;;;;;7.68;1.90;;;16.80;99.90;;;;;;4994098;28;20205;-75
2023/07/03 06:08:51;;;;;;;6.10;1.77;;;16.70;99.90;;;;;;4982798;28;20659;-75
2023/07/03 06:11:22;;;;;;;7.28;1.83;;;16.70;99.90;;;;;;4989919;28;20222;-74
2023/07/03 06:13:55;;;;;;;6.18;1.92;;;16.70;99.90;;;;;;4993261;28;20622;-74
2023/07/03 06:16:27;;;;;;;7.70;2.00;;;16.70;99.90;;;;;;4992249;28;20198;-73
2023/07/03 06:18:58;;;;;;;6.40;1.92;;;16.60;99.90;;;;;;4994389;28;20258;-73
2023/07/03 06:21:30;;;;;;;12.23;2.00;;;16.60;99.90;;;;;;4992478;28;20212;-74
2023/07/03 06:24:01;;;;;;;8.50;2.40;;;16.60;99.90;;;;;;4992876;28;20201;-74
2023/07/03 06:26:33;;;;;;;10.15;2.70;;;16.60;99.90;;;;;;4994300;28;20204;-74
2023/07/03 06:29:07;;;;;;;9.77;1.80;;;16.50;99.90;;;;;;4994179;28;20210;-74
2023/07/03 06:31:38;;;;;;;7.70;2.10;;;16.40;99.90;;;;;;4994086;28;20199;-74
2023/07/03 06:34:09;;;;;;;6.25;1.90;;;16.40;99.90;;;;;;4994814;28;20570;-74
2023/07/03 06:36:40;;;;;;;9.52;2.30;;;16.40;99.90;;;;;;4993140;28;20202;-74
2023/07/03 06:39:14;;;;;;;10.07;2.20;;;16.30;99.90;;;;;;4993124;28;20203;-74
2023/07/03 06:41:45;;;;;;;7.15;1.95;;;16.30;99.90;;;;;;4990675;28;20230;-74
2023/07/03 06:44:19;;;;;;;9.80;2.45;;;16.30;99.90;;;;;;4994456;28;20199;-74
2023/07/03 06:46:51;;;;;;;10.77;2.60;;;16.30;99.90;;;;;;4993447;28;20199;-74
2023/07/03 06:49:24;;;;;;;9.70;2.47;;;16.30;99.90;;;;;;4993531;28;20667;-74
2023/07/03 06:51:55;;;;;;;8.55;3.00;;;16.30;99.90;;;;;;4993840;28;20208;-74
2023/07/03 06:54:26;;;;;;;6.85;2.55;;;16.20;99.90;;;;;;4990408;28;20196;-74
2023/07/03 06:56:57;;;;;;;8.70;2.10;;;16.20;99.90;;;;;;4988981;28;20207;-74
2023/07/03 06:59:30;;;;;;;6.05;2.30;;;16.20;99.90;;;;;;4992539;28;20702;-74
2023/07/03 07:02:01;;;;;;;9.40;2.28;;;16.20;99.90;;;;;;4988680;28;20212;-73
2023/07/03 07:04:33;;;;;;;9.90;2.30;;;16.20;99.90;;;;;;4992567;28;20222;-74
2023/07/03 07:07:04;;;;;;;7.97;2.45;;;16.20;99.90;;;;;;4993406;28;20196;-73
2023/07/03 07:09:36;;;;;;;4.10;1.92;;;16.20;99.90;;;;;;4991993;28;20214;-73
2023/07/03 07:12:07;;;;;;;8.75;2.25;;;16.10;99.90;;;;;;4993282;28;20195;-73
2023/07/03 07:14:40;;;;;;;3.40;1.67;;;16.10;99.90;;;;;;4992149;28;20195;-74
2023/07/03 07:17:11;;;;;;;5.03;2.05;;;16.10;99.90;;;;;;4992354;28;20659;-74
2023/07/03 07:19:43;;;;;;;5.68;2.20;;;16.10;99.90;;;;;;4991357;28;20203;-74
2023/07/03 07:22:14;;;;;;;5.00;2.20;;;16.10;99.90;;;;;;4990224;28;20224;-74
2023/07/03 07:24:45;;;;;;;5.10;2.08;;;16.10;99.90;;;;;;4993904;28;20199;-74
2023/07/03 07:27:16;;;;;;;4.43;1.80;;;16.10;99.90;;;;;;4991708;28;20310;-73
2023/07/03 07:29:49;;;;;;;5.53;2.40;;;16.10;99.90;;;;;;4992095;28;20192;-74
2023/07/03 07:32:21;;;;;;;6.88;2.47;;;16.00;99.90;;;;;;4991497;28;20207;-74
2023/07/03 07:34:52;;;;;;;4.05;2.40;;;16.00;99.90;;;;;;4993862;28;20207;-74
2023/07/03 07:37:23;;;;;;;5.80;2.53;;;16.00;99.90;;;;;;4992831;28;20200;-74
2023/07/03 07:39:54;;;;;;;5.43;2.05;;;16.00;99.90;;;;;;4992320;28;20211;-74
2023/07/03 07:42:25;;;;;;;5.68;1.92;;;16.00;99.90;;;;;;4985805;28;20219;-74
2023/07/03 07:44:58;;;;;;;6.93;2.42;;;16.00;99.90;;;;;;4982381;28;20203;-74
2023/07/03 07:47:29;;;;;;;8.05;2.90;;;16.00;99.90;;;;;;4991915;28;20199;-73
2023/07/03 07:50:00;;;;;;;10.27;3.13;;;16.00;99.90;;;;;;4992574;28;20538;-74
2023/07/03 07:52:33;;;;;;;7.10;2.50;;;16.00;99.90;;;;;;4989720;28;20226;-74
2023/07/03 07:55:04;;;;;;;5.78;1.70;;;15.90;99.90;;;;;;4989903;28;20223;-74
2023/07/03 07:57:35;;;;;;;2.70;1.30;;;15.90;99.90;;;;;;4991568;28;20227;-74
2023/07/03 08:00:09;;;;;;;3.05;1.27;;;15.80;99.90;;;;;;4992021;28;20235;-74
2023/07/03 08:02:40;;;;;;;4.88;1.30;;;15.80;99.90;;;;;;4992543;28;20219;-73
2023/07/03 08:05:12;;;;;;;2.47;1.40;;;15.70;99.90;;;;;;4992095;28;20234;-75
2023/07/03 08:07:43;;;;;;;7.13;1.35;;;15.70;99.90;;;;;;4992475;28;20204;-75
2023/07/03 08:10:15;;;;;;;2.95;1.40;;;15.60;99.90;;;;;;4991764;28;20196;-74
2023/07/03 08:12:46;;;;;;;3.78;1.30;;;15.60;99.90;;;;;;4990840;28;20563;-74
2023/07/03 08:15:19;;;;;;;4.78;1.50;;;15.60;99.90;;;;;;4992181;28;20195;-74
2023/07/03 08:17:50;;;;;;;2.58;1.30;;;15.60;99.90;;;;;;4992421;28;20206;-74
2023/07/03 08:20:22;;;;;;;4.50;1.70;;;15.50;99.90;;;;;;4993568;28;20199;-74
2023/07/03 08:22:53;;;;;;;5.07;1.70;;;15.50;99.90;;;;;;4986953;28;20216;-75
2023/07/03 08:25:24;;;;;;;3.40;1.50;;;15.50;99.90;;;;;;4992579;28;20195;-75
2023/07/03 08:27:55;;;;;;;4.47;1.73;;;15.50;99.90;;;;;;4991996;28;20805;-74
2023/07/03 08:30:28;;;;;;;6.20;2.03;;;15.50;99.90;;;;;;4992455;28;20560;-74
2023/07/03 08:33:00;;;;;;;6.97;2.17;;;15.50;99.90;;;;;;4993256;28;20204;-75
2023/07/03 08:35:31;;;;;;;3.08;1.88;;;15.50;99.90;;;;;;4996613;28;20204;-74
2023/07/03 08:38:03;;;;;;;7.53;1.90;;;15.40;99.90;;;;;;4995668;28;20200;-74
2023/07/03 08:40:35;;;;;;;5.50;1.90;;;15.50;99.90;;;;;;4993194;28;20203;-73
2023/07/03 08:43:10;;;;;;;5.35;1.65;;;15.40;99.90;;;;;;4996999;28;20223;-74
2023/07/03 08:45:46;;;;;;;4.50;1.80;;;15.40;99.90;;;;;;4995915;28;20602;-74
2023/07/03 08:48:19;;;;;;;5.57;1.75;;;15.40;99.90;;;;;;4997084;28;20278;-74
2023/07/03 08:50:53;;;;;;;3.90;1.95;;;15.40;99.90;;;;;;4993623;28;20200;-73
2023/07/03 08:53:27;;;;;;;4.40;1.60;;;15.40;99.90;;;;;;4993839;28;20199;-74
2023/07/03 08:56:03;;;;;;;9.50;2.10;;;15.40;99.90;;;;;;4987868;28;20222;-74
2023/07/03 08:58:34;;;;;;;3.33;1.52;;;15.40;99.90;;;;;;4996553;28;20223;-74
2023/07/03 09:01:14;;;;;;;3.30;1.60;;;15.40;99.90;;;;;;4996876;28;20282;-74
2023/07/03 09:03:55;;;;;;;4.35;1.80;;;15.40;99.90;;;;;;4996475;28;20587;-73
2023/07/03 09:06:30;;;;;;;5.03;1.70;;;15.40;99.90;;;;;;4995331;28;20203;-74
2023/07/03 09:09:11;;;;;;;3.90;1.70;;;15.40;99.90;;;;;;4996651;28;20195;-75
2023/07/03 09:11:48;;;;;;;4.13;1.90;;;15.40;99.90;;;;;;4996189;28;20192;-75
2023/07/03 09:14:26;;;;;;;6.57;2.38;;;15.40;99.90;;;;;;4991865;28;20215;-74
2023/07/03 09:16:59;;;;;;;4.35;2.05;;;15.40;99.90;;;;;;4993170;28;20202;-74
2023/07/03 09:19:31;;;;;;;4.75;1.98;;;15.50;99.90;;;;;;4985513;28;20207;-74
2023/07/03 09:22:04;;;;;;;3.28;2.35;;;15.50;99.90;;;;;;4991505;28;20202;-74
2023/07/03 09:24:42;;;;;;;6.63;2.10;;;15.40;99.90;;;;;;4994392;28;20200;-74
2023/07/03 09:27:17;;;;;;;4.10;2.00;;;15.40;99.90;;;;;;4990014;28;20243;-74
2023/07/03 09:29:49;;;;;;;3.70;1.48;;;15.50;99.90;;;;;;4990874;28;20250;-74
2023/07/03 09:32:29;;;;;;;3.53;1.30;;;15.50;99.90;;;;;;4988310;28;20231;-74
2023/07/03 09:35:15;;;;;;;4.03;1.30;;;15.40;99.90;;;;;;4994426;28;20203;-74
2023/07/03 09:37:48;;;;;;;4.30;1.50;;;15.40;99.90;;;;;;4991727;28;20195;-74
2023/07/03 09:40:23;;;;;;;3.58;1.42;;;15.40;99.90;;;;;;4994157;28;20684;-74
2023/07/03 09:42:54;;;;;;;4.18;1.30;;;15.40;99.90;;;;;;4992515;28;20219;-74
2023/07/03 09:45:32;;;;;;;3.13;1.50;;;15.40;99.90;;;;;;4988353;28;20563;-73
2023/07/03 09:48:12;;;;;;;3.47;1.50;;;15.40;99.90;;;;;;4991403;28;20210;-74
2023/07/03 09:50:44;;;;;;;4.95;1.40;;;15.40;99.90;;;;;;4994777;28;20199;-74
2023/07/03 09:53:20;;;;;;;2.75;1.20;;;15.40;99.90;;;;;;4994577;28;20231;-74
2023/07/03 09:55:56;;;;;;;5.07;1.55;;;15.40;99.90;;;;;;4989636;28;20199;-74
2023/07/03 09:58:28;;;;;;;7.32;2.00;;;15.30;99.90;;;;;;4989666;28;20742;-74
2023/07/03 10:01:01;;;;;;;4.15;1.50;;;15.30;99.90;;;;;;4989897;28;20239;-74
2023/07/03 10:03:37;;;;;;;2.72;1.48;;;15.40;99.90;;;;;;4991602;28;20615;-74
2023/07/03 10:06:16;;;;;;;4.85;2.00;;;15.30;99.90;;;;;;4993856;28;20195;-74
2023/07/03 10:08:51;;;;;;;5.72;1.95;;;15.30;99.90;;;;;;4991801;28;20666;-74
2023/07/03 10:11:28;;;;;;;6.18;2.25;;;15.30;99.90;;;;;;4993554;28;20912;-74
2023/07/03 10:14:00;;;;;;;5.75;2.10;;;15.30;99.90;;;;;;4992725;28;20273;-74
2023/07/03 10:16:33;;;;;;;6.07;2.33;;;15.30;99.90;;;;;;4993141;28;20200;-74
2023/07/03 10:19:07;;;;;;;6.30;2.30;;;15.20;99.90;;;;;;4991137;28;20203;-74
2023/07/03 10:21:39;;;;;;;4.20;2.20;;;15.20;99.90;;;;;;4985618;28;20203;-74
2023/07/03 10:24:13;;;;;;;5.95;2.38;;;15.20;99.90;;;;;;4992680;28;20219;-74
2023/07/03 10:26:50;;;;;;;6.03;2.03;;;15.20;99.90;;;;;;4994197;28;20206;-74
2023/07/03 10:29:26;;;;;;;5.70;3.10;;;15.20;99.90;;;;;;4995245;28;20278;-73
2023/07/03 10:32:01;;;;;;;7.57;3.03;;;15.20;99.90;;;;;;4994976;28;20734;-74
2023/07/03 10:34:43;;;;;;;6.30;2.78;;;15.10;99.90;;;;;;4992934;28;20213;-74
2023/07/03 10:37:18;;;;;;;7.38;3.30;;;15.10;99.90;;;;;;4994650;28;20656;-74
2023/07/03 10:39:55;;;;;;;6.32;3.15;;;15.10;99.90;;;;;;4989383;28;20219;-74
2023/07/03 10:42:32;;;;;;;6.22;3.35;;;15.10;99.90;;;;;;4992966;28;20200;-74
2023/07/03 10:45:07;;;;;;;8.02;3.90;;;15.00;99.90;;;;;;4990607;28;20199;-74
2023/07/03 10:47:46;;;;;;;7.88;3.10;;;15.00;99.90;;;;;;4993129;28;20211;-74
2023/07/03 10:50:21;;;;;;;7.97;3.80;;;14.90;99.90;;;;;;4992147;28;20203;-74
2023/07/03 10:52:58;;;;;;;7.18;3.67;;;15.00;99.90;;;;;;4992859;28;20686;-74
2023/07/03 10:55:34;;;;;;;7.00;3.30;;;15.00;99.90;;;;;;4981471;28;20195;-74
2023/07/03 10:58:09;;;;;;;7.10;3.60;;;14.90;99.90;;;;;;4994242;28;20229;-74
2023/07/03 11:00:49;;;;;;;6.93;3.30;;;15.00;99.90;;;;;;4993741;28;20325;-74
2023/07/03 11:03:29;;;;;;;7.38;3.17;;;14.90;99.90;;;;;;4992661;28;20215;-73
2023/07/03 11:06:06;;;;;;;6.53;3.10;;;15.00;99.90;;;;;;4992717;28;20647;-73
2023/07/03 11:08:46;;;;;;;6.00;3.30;;;14.90;99.90;;;;;;4992393;28;20212;-74
2023/07/03 11:11:33;;;;;;;6.68;3.15;;;14.90;99.90;;;;;;4993697;28;20202;-74
2023/07/03 11:14:09;;;;;;;6.68;3.08;;;15.00;99.90;;;;;;4994128;28;20533;-74
2023/07/03 11:16:51;;;;;;;6.13;3.40;;;15.00;99.90;;;;;;4994080;28;20206;-74
2023/07/03 11:19:32;;;;;;;6.85;3.55;;;14.90;99.90;;;;;;4994385;28;20644;-74
2023/07/03 11:22:15;;;;;;;7.07;3.78;;;14.90;99.90;;;;;;4994036;28;20227;-74
2023/07/03 11:24:58;;;;;;;7.45;3.90;;;15.00;99.90;;;;;;4993881;28;20239;-74
2023/07/03 11:27:35;;;;;;;7.93;3.95;;;14.90;99.90;;;;;;4994065;28;20191;-74
2023/07/03 11:30:08;;;;;;;7.55;3.72;;;14.90;99.90;;;;;;4994118;28;20203;-74
2023/07/03 11:32:40;;;;;;;8.82;4.22;;;14.90;99.90;;;;;;4994794;28;20232;-74
2023/07/03 11:35:14;;;;;;;6.78;4.03;;;14.90;99.90;;;;;;4993855;28;20196;-73
2023/07/03 11:37:52;;;;;;;6.38;3.75;;;14.90;99.90;;;;;;4994055;28;20282;-74
2023/07/03 11:40:35;;;;;;;6.53;3.90;;;14.90;99.90;;;;;;4994101;28;20203;-74
2023/07/03 11:43:37;;;;;;;7.72;3.80;;;14.90;99.90;;;;;;4993602;28;20311;-74
2023/07/03 11:46:21;;;;;;;9.32;4.47;;;14.90;99.90;;;;;;4993995;28;20604;-75
2023/07/03 11:48:57;;;;;;;7.82;4.30;;;14.90;99.90;;;;;;4993813;28;20230;-74
2023/07/03 11:51:37;;;;;;;7.97;3.95;;;14.90;99.90;;;;;;4994814;28;20191;-74
2023/07/03 11:54:24;;;;;;;7.05;3.90;;;14.90;99.90;;;;;;4993927;28;20192;-74
2023/07/03 11:57:01;;;;;;;7.63;3.58;;;14.90;99.90;;;;;;4994336;28;20192;-74
2023/07/03 11:59:44;;;;;;;6.18;4.00;;;14.90;99.90;;;;;;4993434;28;20258;-74
2023/07/03 12:02:48;;;;;;;6.97;4.25;;;14.90;99.90;;;;;;4993574;28;20246;-74
2023/07/03 12:05:53;;;;;;;9.85;5.05;;;14.90;99.90;;;;;;4981579;28;20215;-74
2023/07/03 12:08:46;;;;;;;10.30;4.88;;;14.90;99.90;;;;;;4993681;28;20195;-74
2023/07/03 12:11:24;;;;;;;9.32;5.10;;;14.90;99.90;;;;;;4997651;28;20207;-74
2023/07/03 12:13:56;;;;;;;11.02;5.47;;;14.90;99.90;;;;;;4997643;28;20206;-74
2023/07/03 12:16:34;;;;;;;10.68;4.57;;;14.90;99.90;;;;;;4997796;28;20203;-74
2023/07/03 12:19:09;;;;;;;8.63;4.35;;;14.80;99.90;;;;;;4997342;28;20199;-75
2023/07/03 12:21:43;;;;;;;9.10;3.97;;;14.80;99.90;;;;;;4997272;28;20245;-75
2023/07/03 12:24:32;;;;;;;7.78;4.53;;;14.80;99.90;;;;;;4997521;28;20227;-75
2023/07/03 12:27:10;;;;;;;9.52;4.28;;;14.80;99.90;;;;;;4997320;28;20228;-75
2023/07/03 12:29:50;;;;;;;8.38;3.97;;;14.80;99.90;;;;;;4997226;28;20651;-75
2023/07/03 12:32:28;;;;;;;7.75;4.43;;;14.80;99.90;;;;;;4996998;28;20187;-74
2023/07/03 12:35:13;;;;;;;7.55;4.35;;;14.80;99.90;;;;;;4977910;28;20739;-74
2023/07/03 12:37:48;;;;;;;7.30;4.28;;;14.80;99.90;;;;;;4994832;28;20291;-74
2023/07/03 12:40:21;;;;;;;8.82;4.45;;;14.80;99.90;;;;;;4997333;28;20195;-76
2023/07/03 12:42:55;;;;;;;7.45;3.85;;;14.80;99.90;;;;;;4996251;28;20203;-76
2023/07/03 12:45:28;;;;;;;7.60;4.03;;;14.80;99.90;;;;;;4992502;28;20199;-76
2023/07/03 12:48:07;;;;;;;6.88;3.78;;;14.80;99.90;;;;;;4995825;28;20196;-76
2023/07/03 12:50:48;;;;;;;8.20;4.32;;;14.80;99.90;;;;;;4995846;28;20226;-76
2023/07/03 12:53:20;;;;;;;12.02;5.93;;;14.80;99.90;;;;;;4994893;28;20218;-76
2023/07/03 12:55:55;;;;;;;13.05;6.43;;;14.80;99.90;;;;;;4996752;28;20280;-76
2023/07/03 12:58:29;;;;;;;14.57;6.68;;;14.70;99.90;;;;;;4995968;28;20220;-76
2023/07/03 13:01:06;;;;;;;18.05;7.20;;;14.70;99.90;;;;;;4981591;28;20311;-76
2023/07/03 13:03:41;;;;;;;8.73;5.47;;;14.70;99.90;;;;;;4995509;28;20211;-76
2023/07/03 13:06:17;;;;;;;11.95;5.50;;;14.70;99.90;;;;;;4995757;28;20230;-76
2023/07/03 13:08:49;;;;;;;10.13;5.10;;;14.60;99.90;;;;;;4994087;28;20206;-76
2023/07/03 13:11:35;;;;;;;8.30;4.70;;;14.60;99.90;;;;;;4995261;28;20196;-76
2023/07/03 13:14:16;;;;;;;9.18;4.97;;;14.60;99.90;;;;;;4995482;28;20203;-76
2023/07/03 13:16:49;;;;;;;11.30;4.80;;;14.60;99.90;;;;;;4995407;28;20203;-76
2023/07/03 13:19:31;;;;;;;10.70;5.00;;;14.60;99.90;;;;;;4994778;28;20208;-76